createdAt,value
2022-09-04T00:01:08.366Z,3.60
2022-09-04T00:03:45.890Z,4.20
2022-09-04T00:06:19.612Z,3.92
2022-09-04T00:08:53.114Z,3.95
2022-09-04T00:11:30.947Z,4.28
2022-09-04T00:14:02.717Z,4.00
2022-09-04T00:16:43.199Z,4.18
2022-09-04T00:19:24.401Z,4.43
2022-09-04T00:21:58.345Z,3.92
2022-09-04T00:24:48.014Z,4.18
2022-09-04T00:27:25.537Z,4.32
2022-09-04T00:30:06.568Z,4.65
2022-09-04T00:32:55.883Z,4.57
2022-09-04T00:35:37.979Z,4.78
2022-09-04T00:38:12.308Z,4.60
2022-09-04T00:40:40.930Z,4.80
2022-09-04T00:43:26.883Z,4.30
2022-09-04T00:46:05.120Z,4.40
2022-09-04T00:49:05.899Z,4.70
2022-09-04T00:51:45.226Z,4.47
2022-09-04T00:54:29.161Z,4.50
2022-09-04T00:57:26.980Z,4.72
2022-09-04T01:00:21.894Z,4.90
2022-09-04T01:03:07.281Z,4.45
2022-09-04T01:05:54.163Z,4.40
2022-09-04T01:09:00.027Z,4.47
2022-09-04T01:11:36.295Z,4.72
2022-09-04T01:14:29.618Z,4.65
2022-09-04T01:17:09.483Z,4.22
2022-09-04T01:19:55.265Z,4.40
2022-09-04T01:22:36.030Z,4.70
2022-09-04T01:25:27.785Z,4.60
2022-09-04T01:28:28.149Z,5.50
2022-09-04T01:31:22.801Z,4.32
2022-09-04T01:34:26.798Z,4.47
2022-09-04T01:37:35.520Z,4.72
2022-09-04T01:40:10.175Z,4.95
2022-09-04T01:42:51.759Z,4.40
2022-09-04T01:45:38.387Z,4.40
2022-09-04T01:48:08.105Z,4.53
2022-09-04T01:50:39.090Z,4.50
2022-09-04T01:53:06.622Z,4.95
2022-09-04T01:56:12.330Z,4.80
2022-09-04T01:59:18.399Z,4.90
2022-09-04T02:02:16.681Z,4.82
2022-09-04T02:05:10.281Z,5.00
2022-09-04T02:07:47.971Z,4.57
2022-09-04T02:10:53.808Z,4.50
2022-09-04T02:13:53.849Z,4.70
2022-09-04T02:16:30.364Z,4.75
2022-09-04T02:19:13.598Z,4.50
2022-09-04T02:21:46.900Z,4.15
2022-09-04T02:24:30.192Z,4.68
2022-09-04T02:27:26.601Z,4.25
2022-09-04T02:30:08.325Z,4.15
2022-09-04T02:32:56.547Z,4.00
2022-09-04T02:35:39.923Z,4.25
2022-09-04T02:38:28.396Z,4.47
2022-09-04T02:41:19.732Z,4.93
2022-09-04T02:44:14.651Z,5.63
2022-09-04T02:47:06.222Z,5.10
2022-09-04T02:50:03.685Z,4.65
2022-09-04T02:52:35.411Z,4.75
2022-09-04T02:55:34.659Z,4.78
2022-09-04T02:58:15.425Z,4.80
2022-09-04T03:01:12.517Z,4.80
2022-09-04T03:03:48.094Z,4.78
2022-09-04T03:06:23.913Z,4.93
2022-09-04T03:09:07.079Z,5.25
2022-09-04T03:12:07.226Z,5.20
2022-09-04T03:14:54.995Z,4.72
2022-09-04T03:17:33.639Z,4.85
2022-09-04T03:20:10.589Z,4.57
2022-09-04T03:22:59.655Z,4.68
2022-09-04T03:25:50.785Z,4.88
2022-09-04T03:28:50.661Z,4.88
2022-09-04T03:31:58.748Z,4.60
2022-09-04T03:35:11.010Z,4.47
2022-09-04T03:37:52.317Z,3.70
2022-09-04T03:40:41.732Z,3.97
2022-09-04T03:43:33.112Z,4.57
2022-09-04T03:46:18.681Z,3.50
2022-09-04T03:49:15.254Z,4.00
2022-09-04T03:51:55.818Z,4.18
2022-09-04T03:54:47.978Z,4.60
2022-09-04T03:57:29.035Z,3.92
2022-09-04T04:00:12.287Z,4.07
2022-09-04T04:03:20.252Z,4.03
2022-09-04T04:06:12.937Z,4.80
2022-09-04T04:08:56.699Z,4.85
2022-09-04T04:11:48.709Z,4.35
2022-09-04T04:14:38.430Z,4.50
2022-09-04T04:17:20.677Z,4.65
2022-09-04T04:20:27.720Z,4.57
2022-09-04T04:23:02.144Z,4.28
2022-09-04T04:26:07.195Z,4.20
2022-09-04T04:29:02.900Z,4.70
2022-09-04T04:32:13.452Z,4.40
2022-09-04T04:35:01.522Z,4.50
2022-09-04T04:37:35.077Z,4.32
2022-09-04T04:40:15.052Z,4.25
2022-09-04T04:43:14.126Z,4.57
2022-09-04T04:45:50.831Z,5.05
2022-09-04T04:48:38.941Z,4.53
2022-09-04T04:51:12.637Z,4.85
2022-09-04T04:53:55.627Z,5.00
2022-09-04T04:56:45.860Z,5.03
2022-09-04T04:59:40.117Z,4.97
2022-09-04T05:02:34.195Z,5.35
2022-09-04T05:05:14.007Z,4.40
2022-09-04T05:07:52.497Z,5.80
2022-09-04T05:10:31.988Z,6.10
2022-09-04T05:13:36.768Z,5.75
2022-09-04T05:16:35.244Z,6.45
2022-09-04T05:19:12.664Z,6.32
2022-09-04T05:21:53.337Z,6.10
2022-09-04T05:24:33.727Z,5.97
2022-09-04T05:27:11.206Z,5.90
2022-09-04T05:30:15.665Z,5.50
2022-09-04T05:32:54.159Z,5.82
2022-09-04T05:35:54.357Z,5.97
2022-09-04T05:38:35.944Z,6.30
2022-09-04T05:41:29.847Z,6.60
2022-09-04T05:44:21.488Z,7.30
2022-09-04T05:47:08.809Z,6.97
2022-09-04T05:50:01.072Z,6.35
2022-09-04T05:53:05.910Z,5.85
2022-09-04T05:55:36.183Z,5.85
2022-09-04T05:58:27.150Z,5.32
2022-09-04T06:01:03.557Z,5.80
2022-09-04T06:03:52.830Z,5.35
2022-09-04T06:06:32.709Z,5.63
2022-09-04T06:09:26.054Z,5.43
2022-09-04T06:12:21.992Z,5.30
2022-09-04T06:15:14.119Z,5.20
2022-09-04T06:17:47.332Z,5.20
2022-09-04T06:20:45.039Z,5.47
2022-09-04T06:23:37.089Z,5.25
2022-09-04T06:26:16.667Z,5.00
2022-09-04T06:29:05.692Z,4.45
2022-09-04T06:31:46.314Z,4.85
2022-09-04T06:34:46.004Z,4.45
2022-09-04T06:37:51.959Z,4.28
2022-09-04T06:40:43.642Z,3.80
2022-09-04T06:43:29.781Z,3.72
2022-09-04T06:46:29.650Z,3.65
2022-09-04T06:54:10.328Z,3.00
2022-09-04T06:57:16.818Z,3.10
2022-09-04T07:00:04.479Z,2.60
2022-09-04T07:03:14.913Z,2.60
2022-09-04T07:05:59.135Z,2.20
2022-09-04T07:08:44.097Z,2.28
2022-09-04T07:11:31.991Z,2.53
2022-09-04T07:28:08.470Z,2.00
2022-09-04T07:35:35.141Z,2.00
2022-09-04T07:38:39.002Z,1.73
2022-09-04T07:41:49.059Z,1.83
2022-09-04T07:49:37.042Z,1.90
2022-09-04T07:53:23.847Z,2.10
2022-09-04T07:59:38.700Z,2.30
2022-09-04T08:02:20.300Z,2.38
2022-09-04T08:05:44.660Z,2.00
2022-09-04T08:08:55.609Z,2.45
2022-09-04T08:12:39.558Z,2.22
2022-09-04T08:26:14.449Z,2.38
2022-09-04T08:38:22.890Z,1.80
2022-09-04T08:41:21.057Z,1.98
2022-09-04T08:44:29.746Z,1.70
2022-09-04T08:47:38.046Z,1.70
2022-09-04T08:50:31.830Z,2.00
2022-09-04T08:53:28.139Z,1.80
2022-09-04T08:56:20.614Z,2.45
2022-09-04T08:58:56.710Z,2.80
2022-09-04T09:01:45.093Z,2.80
2022-09-04T09:04:43.897Z,2.05
2022-09-04T09:07:42.295Z,2.10
2022-09-04T09:10:37.551Z,2.78
2022-09-04T09:13:26.134Z,3.20
2022-09-04T09:16:09.434Z,3.20
2022-09-04T09:18:48.683Z,2.78
2022-09-04T09:21:49.437Z,2.85
2022-09-04T09:24:47.511Z,3.42
2022-09-04T09:27:26.888Z,4.03
2022-09-04T09:30:13.237Z,3.50
2022-09-04T09:32:52.576Z,4.00
2022-09-04T09:36:04.868Z,4.38
2022-09-04T09:38:57.207Z,3.58
2022-09-04T09:41:46.512Z,3.80
2022-09-04T09:44:42.685Z,3.55
2022-09-04T09:47:37.807Z,4.10
2022-09-04T09:50:42.694Z,3.83
2022-09-04T09:53:29.155Z,3.95
2022-09-04T09:56:35.207Z,4.00
2022-09-04T09:59:23.589Z,3.80
2022-09-04T10:02:12.056Z,5.10
2022-09-04T10:04:54.498Z,4.13
2022-09-04T10:07:28.456Z,3.30
2022-09-04T10:10:01.900Z,3.78
2022-09-04T10:12:41.533Z,3.30
2022-09-04T10:15:30.369Z,3.70
2022-09-04T10:18:33.382Z,3.60
2022-09-04T10:21:10.448Z,3.42
2022-09-04T10:23:59.678Z,3.70
2022-09-04T10:26:54.536Z,3.88
2022-09-04T10:29:42.045Z,3.97
2022-09-04T10:32:27.576Z,4.10
2022-09-04T10:35:11.119Z,3.92
2022-09-04T10:38:00.056Z,3.83
2022-09-04T10:40:43.266Z,4.28
2022-09-04T10:43:36.403Z,3.35
2022-09-04T10:46:23.071Z,4.20
2022-09-04T10:49:15.575Z,3.42
2022-09-04T10:52:07.924Z,3.63
2022-09-04T10:54:45.061Z,3.25
2022-09-04T10:57:28.382Z,2.85
2022-09-04T11:00:07.748Z,3.17
2022-09-04T11:03:11.157Z,3.17
2022-09-04T11:06:02.373Z,3.15
2022-09-04T11:08:45.036Z,3.55
2022-09-04T11:12:01.894Z,2.75
2022-09-04T11:15:01.251Z,3.75
2022-09-04T11:17:47.056Z,3.92
2022-09-04T11:20:45.037Z,4.50
2022-09-04T11:23:35.795Z,3.10
2022-09-04T11:26:09.016Z,3.22
2022-09-04T11:28:56.023Z,3.63
2022-09-04T11:32:01.817Z,3.35
2022-09-04T11:35:00.969Z,3.00
2022-09-04T11:37:43.481Z,3.75
2022-09-04T11:40:55.327Z,3.97
2022-09-04T11:43:37.439Z,3.85
2022-09-04T11:46:33.062Z,3.40
2022-09-04T11:49:26.900Z,3.00
2022-09-04T11:52:00.295Z,3.08
2022-09-04T11:55:05.025Z,3.60
2022-09-04T11:57:47.349Z,3.53
2022-09-04T12:00:18.790Z,3.33
2022-09-04T12:03:08.507Z,5.20
2022-09-04T12:05:45.757Z,4.10
2022-09-04T12:08:40.817Z,4.07
2022-09-04T12:11:23.448Z,3.10
2022-09-04T12:13:55.912Z,3.70
2022-09-04T12:16:54.172Z,3.72
2022-09-04T12:19:39.994Z,3.53
2022-09-04T12:22:44.713Z,3.58
2022-09-04T12:25:30.621Z,4.10
2022-09-04T12:28:43.130Z,3.33
2022-09-04T12:31:38.628Z,3.28
2022-09-04T12:37:39.253Z,3.00
2022-09-04T12:40:29.342Z,2.55
2022-09-04T12:43:20.463Z,3.08
2022-09-04T12:46:06.234Z,3.00
2022-09-04T12:48:45.660Z,2.75
2022-09-04T12:51:17.258Z,3.25
2022-09-04T12:53:56.672Z,3.20
2022-09-04T12:56:42.189Z,3.05
2022-09-04T12:59:28.529Z,2.88
2022-09-04T13:02:16.822Z,2.83
2022-09-04T13:05:08.554Z,3.85
2022-09-04T13:08:18.828Z,2.90
2022-09-04T13:11:09.579Z,3.22
2022-09-04T13:14:14.035Z,3.28
2022-09-04T13:17:02.435Z,3.35
2022-09-04T13:19:36.107Z,3.13
2022-09-04T13:22:12.586Z,3.13
2022-09-04T13:24:44.510Z,3.17
2022-09-04T13:27:16.014Z,3.80
2022-09-04T13:30:05.676Z,3.60
2022-09-04T13:33:02.210Z,3.50
2022-09-04T13:35:50.203Z,3.80
2022-09-04T13:38:37.797Z,3.28
2022-09-04T13:41:13.621Z,3.20
2022-09-04T13:43:53.168Z,3.22
2022-09-04T13:46:29.987Z,3.00
2022-09-04T13:49:11.494Z,2.88
2022-09-04T13:51:48.017Z,2.90
2022-09-04T13:54:30.216Z,2.83
2022-09-04T13:57:10.792Z,2.75
2022-09-04T13:59:38.622Z,2.55
2022-09-04T14:02:12.524Z,2.95
2022-09-04T14:04:48.046Z,3.10
2022-09-04T14:07:31.820Z,3.00
2022-09-04T14:10:04.361Z,2.90
2022-09-04T14:12:53.737Z,3.20
2022-09-04T14:15:52.270Z,2.97
2022-09-04T14:18:31.995Z,2.80
2022-09-04T14:21:31.452Z,2.80
2022-09-04T14:24:23.738Z,3.08
2022-09-04T14:27:11.442Z,3.28
2022-09-04T14:30:07.332Z,3.00
2022-09-04T14:33:08.901Z,3.10
2022-09-04T14:40:16.458Z,3.50
2022-09-04T14:43:20.608Z,3.10
2022-09-04T14:49:47.246Z,3.55
2022-09-04T14:56:25.622Z,3.08
2022-09-04T15:07:21.106Z,3.22
2022-09-04T15:10:43.387Z,2.75
2022-09-04T15:13:39.997Z,3.10
2022-09-04T15:16:24.719Z,2.45
2022-09-04T15:19:36.316Z,3.30
2022-09-04T15:24:54.715Z,3.42
2022-09-04T15:27:34.038Z,3.20
2022-09-04T15:30:07.143Z,2.80
2022-09-04T15:32:40.020Z,3.42
2022-09-04T15:35:33.256Z,3.00
2022-09-04T15:38:20.732Z,3.10
2022-09-04T15:41:16.550Z,3.35
2022-09-04T15:43:54.043Z,3.15
2022-09-04T15:46:40.898Z,3.03
2022-09-04T15:49:20.502Z,3.40
2022-09-04T15:52:18.932Z,3.10
2022-09-04T15:54:46.499Z,2.80
2022-09-04T15:57:43.216Z,2.80
2022-09-04T16:00:17.366Z,2.92
2022-09-04T16:03:10.333Z,2.95
2022-09-04T16:06:01.686Z,3.00
2022-09-04T16:08:48.038Z,3.15
2022-09-04T16:11:36.847Z,2.97
2022-09-04T16:14:17.534Z,2.90
2022-09-04T16:16:55.122Z,2.97
2022-09-04T16:19:28.437Z,3.30
2022-09-04T16:22:17.964Z,2.90
2022-09-04T16:24:51.880Z,3.63
2022-09-04T16:27:23.899Z,3.50
2022-09-04T16:29:59.489Z,2.80
2022-09-04T16:32:35.351Z,2.95
2022-09-04T16:35:19.155Z,3.08
2022-09-04T16:38:03.652Z,3.17
2022-09-04T16:40:43.215Z,3.17
2022-09-04T16:43:34.191Z,3.20
2022-09-04T16:46:23.804Z,3.35
2022-09-04T16:49:03.599Z,2.67
2022-09-04T16:51:41.334Z,3.22
2022-09-04T16:54:30.955Z,3.25
2022-09-04T16:57:15.833Z,3.03
2022-09-04T16:59:48.589Z,3.20
2022-09-04T17:02:30.767Z,3.28
2022-09-04T17:05:40.168Z,3.20
2022-09-04T17:08:07.672Z,3.17
2022-09-04T17:10:47.040Z,3.03
2022-09-04T17:13:38.256Z,3.22
2022-09-04T17:16:21.867Z,2.80
2022-09-04T17:18:55.661Z,3.15
2022-09-04T17:26:34.642Z,3.30
2022-09-04T17:29:02.865Z,2.88
2022-09-04T17:29:16.015Z,3.22
2022-09-04T17:31:13.893Z,3.30
2022-09-04T17:40:37.324Z,3.30
2022-09-04T17:40:41.684Z,3.20
2022-09-04T17:40:51.159Z,3.42
2022-09-04T17:43:23.631Z,3.17
2022-09-04T17:46:02.378Z,3.40
2022-09-04T17:48:51.979Z,3.60
2022-09-04T17:51:33.862Z,3.33
2022-09-04T17:54:10.230Z,3.78
2022-09-04T17:56:49.481Z,3.78
2022-09-04T17:59:31.482Z,3.50
2022-09-04T18:02:29.023Z,3.60
2022-09-04T18:05:34.073Z,3.67
2022-09-04T18:08:38.266Z,3.95
2022-09-04T18:11:31.105Z,3.80
2022-09-04T18:14:17.745Z,3.75
2022-09-04T18:17:12.806Z,4.10
2022-09-04T18:19:45.744Z,3.80
2022-09-04T18:22:31.964Z,4.22
2022-09-04T18:25:18.066Z,4.18
2022-09-04T18:28:11.332Z,4.30
2022-09-04T18:37:08.882Z,4.88
2022-09-04T18:37:26.558Z,4.63
2022-09-04T18:38:10.879Z,5.05
2022-09-04T18:43:45.028Z,5.15
2022-09-04T18:50:30.998Z,5.07
2022-09-04T18:50:45.858Z,4.63
2022-09-04T18:50:50.872Z,4.97
2022-09-04T18:52:19.705Z,4.75
2022-09-04T18:54:56.750Z,4.40
2022-09-04T18:57:38.315Z,4.18
2022-09-04T19:00:13.009Z,3.78
2022-09-04T19:03:03.535Z,3.15
2022-09-04T19:05:44.911Z,3.10
2022-09-04T19:08:25.781Z,2.72
2022-09-04T19:10:59.185Z,3.05
2022-09-04T19:13:49.354Z,3.10
2022-09-04T19:17:08.624Z,2.80
2022-09-04T19:19:45.033Z,3.05
2022-09-04T19:22:25.130Z,2.92
2022-09-04T19:25:27.219Z,2.97
2022-09-04T19:28:13.804Z,3.00
2022-09-04T19:30:54.807Z,3.20
2022-09-04T19:33:57.612Z,2.90
2022-09-04T19:36:37.552Z,3.55
2022-09-04T19:45:56.271Z,3.20
2022-09-04T19:46:01.429Z,3.33
2022-09-04T19:46:15.612Z,3.20
2022-09-04T19:48:23.593Z,3.40
2022-09-04T19:53:33.144Z,3.38
2022-09-04T19:53:56.176Z,3.00
2022-09-04T19:57:32.008Z,3.08
2022-09-04T19:59:40.125Z,3.30
2022-09-04T20:02:49.393Z,3.72
2022-09-04T20:05:37.857Z,3.65
2022-09-04T20:08:14.144Z,3.28
2022-09-04T20:10:47.781Z,3.35
2022-09-04T20:13:30.334Z,3.30
2022-09-04T20:16:06.609Z,4.03
2022-09-04T20:19:02.464Z,3.60
2022-09-04T20:21:45.736Z,3.33
2022-09-04T20:24:13.241Z,3.70
2022-09-04T20:26:47.173Z,3.97
2022-09-04T20:29:23.785Z,3.97
2022-09-04T20:32:26.879Z,3.90
2022-09-04T20:35:32.592Z,3.38
2022-09-04T20:38:20.900Z,3.67
2022-09-04T20:41:24.649Z,3.65
2022-09-04T20:44:22.867Z,3.78
2022-09-04T20:52:43.708Z,3.55
2022-09-04T20:52:59.022Z,4.00
2022-09-04T20:53:23.885Z,3.90
2022-09-04T20:56:01.094Z,3.72
2022-09-04T21:03:07.291Z,4.00
2022-09-04T21:03:22.527Z,4.60
2022-09-04T21:05:34.465Z,4.85
2022-09-04T21:08:13.469Z,5.00
2022-09-04T21:10:55.608Z,4.55
2022-09-04T21:13:47.449Z,5.30
2022-09-04T21:16:37.903Z,4.72
2022-09-04T21:19:33.141Z,5.03
2022-09-04T21:22:00.999Z,5.57
2022-09-04T21:24:40.695Z,5.53
2022-09-04T21:27:27.428Z,5.72
2022-09-04T21:30:14.444Z,6.30
2022-09-04T21:33:27.164Z,6.30
2022-09-04T21:48:25.007Z,6.80
2022-09-04T21:51:04.551Z,7.38
2022-09-04T22:02:29.226Z,6.35
2022-09-04T22:02:41.324Z,7.78
2022-09-04T22:03:35.057Z,6.10
2022-09-04T22:08:58.739Z,7.15
2022-09-04T22:13:30.138Z,6.35
2022-09-04T22:13:41.041Z,7.15
2022-09-04T22:16:09.705Z,6.05
2022-09-04T22:18:46.234Z,5.80
2022-09-04T22:21:21.037Z,5.72
2022-09-04T22:24:03.801Z,5.78
2022-09-04T22:26:43.278Z,5.40
2022-09-04T22:29:26.773Z,4.93
2022-09-04T22:32:21.451Z,4.90
2022-09-04T22:34:54.899Z,5.13
2022-09-04T22:38:02.171Z,5.25
2022-09-04T22:40:57.033Z,5.00
2022-09-04T22:43:27.130Z,5.18
2022-09-04T22:46:03.339Z,5.15
2022-09-04T22:49:12.049Z,4.53
2022-09-04T22:51:58.851Z,4.82
2022-09-04T22:54:29.083Z,4.72
2022-09-04T22:57:02.926Z,4.35
2022-09-04T22:59:51.592Z,4.25
2022-09-04T23:07:56.135Z,4.10
2022-09-04T23:13:49.353Z,4.30
2022-09-04T23:13:50.233Z,4.70
2022-09-04T23:15:32.842Z,9.52
2022-09-04T23:20:18.991Z,22.33
2022-09-04T23:26:32.358Z,43.67
2022-09-04T23:26:44.645Z,36.00
2022-09-04T23:27:28.397Z,28.55
2022-09-04T23:30:25.182Z,21.88
2022-09-04T23:33:13.219Z,18.05
2022-09-04T23:35:46.503Z,15.55
2022-09-04T23:38:43.714Z,14.13
2022-09-04T23:41:33.178Z,11.05
2022-09-04T23:44:28.317Z,9.05
2022-09-04T23:47:01.747Z,9.23
2022-09-04T23:49:38.064Z,8.45
2022-09-04T23:52:27.320Z,8.73
2022-09-04T23:55:41.386Z,9.43
2022-09-04T23:59:11.810Z,6.30
